Time;durP1;ratioP1;P1;durP2;ratioP2;P2;SDS_P1;SDS_P2;PMS_P1;PMS_P2;Temp;Humidity;BMP_temperature;BMP_pressure;BME280_temperature;BME280_humidity;BME280_pressure;Samples;Min_cycle;Max_cycle;Signal;HPM_P1;HPM_P2
2019/12/23 00:01:09;;;;;;;6.8;1.7;;;;;;;7.06;75.27441;944.3358;;;;
2019/12/23 00:03:35;;;;;;;5.8;1.8;;;;;;;7.05;75.5752;944.2972;;;;
2019/12/23 00:06:00;;;;;;;7;1.9;;;;;;;7;75.63574;944.2656;;;;
2019/12/23 00:08:25;;;;;;;5.8;1.6;;;;;;;7.03;75.58398;944.3132;;;;
2019/12/23 00:10:50;;;;;;;5.7;1.6;;;;;;;6.92;76.0752;944.3677;;;;
2019/12/23 00:13:15;;;;;;;4.8;1.9;;;;;;;6.89;75.84961;944.3536;;;;
2019/12/23 00:15:40;;;;;;;4.9;1.6;;;;;;;6.86;76.21582;944.2902;;;;
2019/12/23 00:18:05;;;;;;;7.7;1.8;;;;;;;6.81;76.27734;944.3058;;;;
2019/12/23 00:20:30;;;;;;;4.9;1.7;;;;;;;6.8;76.02051;944.3469;;;;
2019/12/23 00:22:55;;;;;;;6.5;1.8;;;;;;;6.8;76.10156;944.4246;;;;
2019/12/23 00:25:21;;;;;;;8.5;1.7;;;;;;;6.74;76.24023;944.4219;;;;
2019/12/23 00:27:46;;;;;;;6.5;1.6;;;;;;;6.82;76.09277;944.4224;;;;
2019/12/23 00:30:11;;;;;;;8;1.8;;;;;;;6.91;75.81836;944.4924;;;;
2019/12/23 00:32:36;;;;;;;6.1;1.9;;;;;;;6.84;75.96777;944.5134;;;;
2019/12/23 00:35:01;;;;;;;5.8;1.8;;;;;;;6.83;75.90723;944.4964;;;;
2019/12/23 00:37:26;;;;;;;4.7;1.7;;;;;;;6.84;75.95703;944.5655;;;;
2019/12/23 00:39:51;;;;;;;7.3;1.7;;;;;;;6.78;75.51758;944.5944;;;;
2019/12/23 00:42:17;;;;;;;4.6;1.8;;;;;;;6.88;75.52148;944.6537;;;;
2019/12/23 00:44:42;;;;;;;4.5;1.6;;;;;;;6.86;75.3457;944.6881;;;;
2019/12/23 00:47:07;;;;;;;5.7;1.5;;;;;;;6.79;75.34277;944.6376;;;;
2019/12/23 00:49:32;;;;;;;7;1.7;;;;;;;6.74;75.82129;944.7208;;;;
2019/12/23 00:51:57;;;;;;;5;1.6;;;;;;;6.78;75.74805;944.7279;;;;
2019/12/23 00:54:22;;;;;;;6.7;1.9;;;;;;;6.77;75.80664;944.7283;;;;
2019/12/23 00:56:47;;;;;;;7;1.8;;;;;;;6.84;75.59668;944.8367;;;;
2019/12/23 00:59:13;;;;;;;7.1;1.7;;;;;;;6.8;75.83301;944.9175;;;;
2019/12/23 01:01:38;;;;;;;6.4;1.6;;;;;;;6.87;75.50781;944.9586;;;;
2019/12/23 01:04:03;;;;;;;8;1.6;;;;;;;6.91;75.24902;944.8978;;;;
2019/12/23 01:06:28;;;;;;;6.9;1.8;;;;;;;6.86;74.92578;944.8873;;;;
2019/12/23 01:08:53;;;;;;;8;2.1;;;;;;;6.93;74.85645;944.9875;;;;
2019/12/23 01:11:18;;;;;;;6.4;1.9;;;;;;;6.94;74.77832;945.0479;;;;
2019/12/23 01:13:43;;;;;;;7.2;1.8;;;;;;;6.98;74.40039;945.0405;;;;
2019/12/23 01:16:09;;;;;;;5.9;1.5;;;;;;;6.96;74.40918;945.0881;;;;
2019/12/23 01:18:34;;;;;;;5.5;1.8;;;;;;;6.89;74.6543;945.1559;;;;
2019/12/23 01:20:59;;;;;;;6.1;1.7;;;;;;;6.83;74.60742;945.1845;;;;
2019/12/23 01:23:24;;;;;;;6.5;1.6;;;;;;;6.94;74.48633;945.2122;;;;
2019/12/23 01:25:49;;;;;;;5.4;1.7;;;;;;;6.81;74.68555;945.1964;;;;
2019/12/23 01:28:14;;;;;;;4.8;1.6;;;;;;;6.89;74.5498;945.1866;;;;
2019/12/23 01:30:39;;;;;;;6.2;1.6;;;;;;;6.82;74.75684;945.2936;;;;
2019/12/23 01:33:04;;;;;;;8.6;1.8;;;;;;;6.89;74.54785;945.2986;;;;
2019/12/23 01:35:30;;;;;;;6.9;1.7;;;;;;;6.88;74.76563;945.3617;;;;
2019/12/23 01:37:55;;;;;;;5.3;1.6;;;;;;;6.84;74.92285;945.394;;;;
2019/12/23 01:40:20;;;;;;;8.3;2.1;;;;;;;6.96;74.65234;945.44;;;;
2019/12/23 01:42:45;;;;;;;6.9;1.9;;;;;;;6.89;75.08105;945.4612;;;;
2019/12/23 01:45:10;;;;;;;7.7;1.9;;;;;;;6.93;74.9375;945.5081;;;;
2019/12/23 01:47:35;;;;;;;8;1.9;;;;;;;7.03;74.81641;945.5296;;;;
2019/12/23 01:50:00;;;;;;;8.4;1.9;;;;;;;7.01;75.05664;945.5243;;;;
2019/12/23 01:52:25;;;;;;;7.1;1.8;;;;;;;7.01;74.63965;945.5391;;;;
2019/12/23 01:54:51;;;;;;;7;1.7;;;;;;;7.1;74.66504;945.6232;;;;
2019/12/23 01:57:16;;;;;;;4.8;1.6;;;;;;;7.04;75.27148;945.6362;;;;
2019/12/23 01:59:41;;;;;;;9;1.9;;;;;;;7;76.1377;945.6944;;;;
2019/12/23 02:02:07;;;;;;;6.1;1.6;;;;;;;7.02;76.20898;945.7353;;;;
2019/12/23 02:04:32;;;;;;;5.1;1.7;;;;;;;7;76.52051;945.7274;;;;
2019/12/23 02:06:57;;;;;;;5.7;1.5;;;;;;;6.92;76.93652;945.7347;;;;
2019/12/23 02:09:22;;;;;;;7.7;1.7;;;;;;;7;76.66016;945.7769;;;;
2019/12/23 02:11:47;;;;;;;5.5;1.8;;;;;;;7.03;75.86328;945.7744;;;;
2019/12/23 02:14:13;;;;;;;6.8;1.9;;;;;;;6.98;76.3418;945.8293;;;;
2019/12/23 02:16:38;;;;;;;7.8;2;;;;;;;6.95;76.25586;945.9738;;;;
2019/12/23 02:19:03;;;;;;;5.9;1.7;;;;;;;6.94;76.32422;946.0039;;;;
2019/12/23 02:21:28;;;;;;;6.7;1.7;;;;;;;6.99;76.27344;945.9904;;;;
2019/12/23 02:23:53;;;;;;;6.5;1.7;;;;;;;7.08;76.25488;946.0667;;;;
2019/12/23 02:26:18;;;;;;;9.2;1.9;;;;;;;7.1;76.39746;946.0808;;;;
2019/12/23 02:28:43;;;;;;;8.8;2;;;;;;;7.03;76.58398;946.046;;;;
2019/12/23 02:31:08;;;;;;;7.8;1.6;;;;;;;7.1;75.91016;946.1415;;;;
2019/12/23 02:33:34;;;;;;;6;1.8;;;;;;;7.1;76.20117;946.1228;;;;
2019/12/23 02:35:59;;;;;;;8.3;1.9;;;;;;;7.01;77.03223;946.2244;;;;
2019/12/23 02:38:24;;;;;;;5.1;1.9;;;;;;;7.01;76.49805;946.2583;;;;
2019/12/23 02:40:49;;;;;;;6.6;1.7;;;;;;;7.05;76.43457;946.324;;;;
2019/12/23 02:43:14;;;;;;;6.5;1.9;;;;;;;7.08;75.58008;946.3481;;;;
2019/12/23 02:45:39;;;;;;;6.4;1.7;;;;;;;7.01;76.19531;946.4087;;;;
2019/12/23 02:48:04;;;;;;;6.9;1.7;;;;;;;7.01;76.11426;946.537;;;;
2019/12/23 02:50:30;;;;;;;6.4;1.4;;;;;;;7.08;75.70801;946.5938;;;;
2019/12/23 02:52:55;;;;;;;7;1.5;;;;;;;7.16;75.40918;946.6867;;;;
2019/12/23 02:55:20;;;;;;;5.9;1.6;;;;;;;7.1;75.36426;946.6591;;;;
2019/12/23 02:57:45;;;;;;;4.8;1.5;;;;;;;7.06;76.05371;946.8494;;;;
2019/12/23 03:00:10;;;;;;;4.7;1.5;;;;;;;7.12;76.09961;946.8365;;;;
2019/12/23 03:02:36;;;;;;;6.3;1.5;;;;;;;7.02;76.62891;946.838;;;;
2019/12/23 03:05:01;;;;;;;7.8;1.6;;;;;;;6.97;76.86328;946.8337;;;;
2019/12/23 03:07:26;;;;;;;7.7;1.8;;;;;;;7;76.99609;946.9219;;;;
2019/12/23 03:09:51;;;;;;;5.5;1.6;;;;;;;7.06;77.05371;946.9755;;;;
2019/12/23 03:12:16;;;;;;;4.7;1.4;;;;;;;6.97;76.91016;947.0463;;;;
2019/12/23 03:14:42;;;;;;;5.9;1.7;;;;;;;7.02;77.23145;947.1484;;;;
2019/12/23 03:17:07;;;;;;;5.1;1.5;;;;;;;7.06;77.50684;947.3044;;;;
2019/12/23 03:19:32;;;;;;;6.3;1.6;;;;;;;6.98;78.24805;947.3064;;;;
2019/12/23 03:21:57;;;;;;;5.2;1.4;;;;;;;6.9;78.97754;947.3922;;;;
2019/12/23 03:24:22;;;;;;;5.9;1.4;;;;;;;6.99;78.78418;947.4056;;;;
2019/12/23 03:26:47;;;;;;;5.9;1.6;;;;;;;6.95;78.68457;947.3635;;;;
2019/12/23 03:29:12;;;;;;;5.7;1.5;;;;;;;6.87;78.95898;947.3796;;;;
2019/12/23 03:31:38;;;;;;;7;1.7;;;;;;;6.86;79.25;947.5313;;;;
2019/12/23 03:34:03;;;;;;;4.9;1.4;;;;;;;6.9;79.02344;947.4936;;;;
2019/12/23 03:36:28;;;;;;;4.4;1.5;;;;;;;6.85;79.15234;947.5608;;;;
2019/12/23 03:38:53;;;;;;;6.4;1.5;;;;;;;6.84;79.50098;947.6516;;;;
2019/12/23 03:41:18;;;;;;;5.8;1.5;;;;;;;6.8;79.35254;947.7188;;;;
2019/12/23 03:43:44;;;;;;;6.1;1.4;;;;;;;6.88;79.1123;947.7207;;;;
2019/12/23 03:46:09;;;;;;;5.7;1.4;;;;;;;6.84;79.14063;947.7492;;;;
2019/12/23 03:48:34;;;;;;;6.5;1.5;;;;;;;6.88;78.9043;947.8361;;;;
2019/12/23 03:50:59;;;;;;;5.1;1.5;;;;;;;6.87;79.01758;947.8503;;;;
2019/12/23 03:53:24;;;;;;;4.3;1.4;;;;;;;6.89;78.46289;947.9036;;;;
2019/12/23 03:55:49;;;;;;;4.9;1.4;;;;;;;6.97;78.31738;947.969;;;;
2019/12/23 03:58:14;;;;;;;5;1.3;;;;;;;6.88;78.54395;947.9677;;;;
2019/12/23 04:02:26;;;;;;;6.4;1.5;;;;;;;6.86;78.95898;948.0938;;;;
2019/12/23 04:04:51;;;;;;;5.2;1.5;;;;;;;6.88;78.8584;948.1245;;;;
2019/12/23 04:07:16;;;;;;;5.2;1.3;;;;;;;6.91;78.43457;948.1836;;;;
2019/12/23 04:09:42;;;;;;;4.8;1.3;;;;;;;6.93;78.65723;948.2537;;;;
2019/12/23 04:12:06;;;;;;;3.5;1.3;;;;;;;6.78;78.95508;948.3022;;;;
2019/12/23 04:14:31;;;;;;;6.8;1.4;;;;;;;6.84;79.10547;948.3483;;;;
2019/12/23 04:16:57;;;;;;;5.5;1.6;;;;;;;6.83;79.45215;948.3195;;;;
2019/12/23 04:19:22;;;;;;;4.7;1.4;;;;;;;6.83;79.58008;948.3664;;;;
2019/12/23 04:21:47;;;;;;;5;1.4;;;;;;;6.92;79.48242;948.4141;;;;
2019/12/23 04:24:12;;;;;;;6.8;1.9;;;;;;;6.84;79.7334;948.4928;;;;
2019/12/23 04:26:37;;;;;;;4.8;1.5;;;;;;;6.81;80.16992;948.6028;;;;
2019/12/23 04:29:02;;;;;;;5.4;1.6;;;;;;;6.88;79.9375;948.551;;;;
2019/12/23 04:31:27;;;;;;;9.5;1.8;;;;;;;6.86;80.21289;948.5969;;;;
2019/12/23 04:33:53;;;;;;;6.8;1.7;;;;;;;6.75;80.51855;948.6439;;;;
2019/12/23 04:36:17;;;;;;;5.8;1.5;;;;;;;6.78;80.91992;948.6533;;;;
2019/12/23 04:38:42;;;;;;;6.7;1.9;;;;;;;6.85;80.4082;948.6839;;;;
2019/12/23 04:41:07;;;;;;;7;1.8;;;;;;;6.79;80.76855;948.7693;;;;
2019/12/23 04:43:32;;;;;;;5.5;1.6;;;;;;;6.79;80.76855;948.7977;;;;
2019/12/23 04:45:57;;;;;;;8.1;1.7;;;;;;;6.66;80.84863;948.7999;;;;
2019/12/23 04:48:23;;;;;;;6;1.8;;;;;;;6.73;80.85156;948.8431;;;;
2019/12/23 04:50:48;;;;;;;6.7;1.8;;;;;;;6.67;81.01465;948.9314;;;;
2019/12/23 04:53:13;;;;;;;5.8;1.8;;;;;;;6.73;80.89844;948.8819;;;;
2019/12/23 04:55:38;;;;;;;4.4;1.5;;;;;;;6.72;80.32715;948.9124;;;;
2019/12/23 04:58:03;;;;;;;5.5;1.6;;;;;;;6.71;80.32422;948.9666;;;;
2019/12/23 05:00:28;;;;;;;5.5;1.6;;;;;;;6.81;80.06543;948.98;;;;
2019/12/23 05:02:53;;;;;;;4.9;1.4;;;;;;;6.77;79.62695;949.0496;;;;
2019/12/23 05:05:18;;;;;;;5.3;1.7;;;;;;;6.71;79.85938;949.0865;;;;
2019/12/23 05:07:43;;;;;;;5.9;1.9;;;;;;;6.63;80.29785;949.1841;;;;
2019/12/23 05:10:08;;;;;;;4.3;1.5;;;;;;;6.67;79.97949;949.1864;;;;
2019/12/23 05:12:34;;;;;;;4.2;1.3;;;;;;;6.64;79.96289;949.2442;;;;
2019/12/23 05:14:59;;;;;;;4.6;1.4;;;;;;;6.75;79.1123;949.2238;;;;
2019/12/23 05:17:24;;;;;;;2.4;1.3;;;;;;;6.85;79.08398;949.2538;;;;
2019/12/23 05:19:49;;;;;;;3.6;1.2;;;;;;;6.73;78.87695;949.2509;;;;
2019/12/23 05:22:14;;;;;;;2.9;1.1;;;;;;;6.7;79;949.2921;;;;
2019/12/23 05:24:39;;;;;;;3.7;1.2;;;;;;;6.69;78.70508;949.3932;;;;
2019/12/23 05:27:04;;;;;;;4;1.3;;;;;;;6.77;78.39551;949.3386;;;;
2019/12/23 05:29:29;;;;;;;3.2;1.2;;;;;;;6.85;78.39844;949.4216;;;;
2019/12/23 05:31:54;;;;;;;3.9;1.3;;;;;;;6.77;78.35059;949.4103;;;;
2019/12/23 05:34:20;;;;;;;3.4;1.3;;;;;;;6.71;78.38379;949.4889;;;;
2019/12/23 05:36:45;;;;;;;2.2;1.2;;;;;;;6.75;77.98535;949.5231;;;;
2019/12/23 05:39:10;;;;;;;3.6;1.2;;;;;;;6.77;78.13965;949.5352;;;;
2019/12/23 05:41:35;;;;;;;2.5;1.1;;;;;;;6.79;77.95703;949.6163;;;;
2019/12/23 05:44:00;;;;;;;2.2;1;;;;;;;6.79;77.6084;949.7714;;;;
2019/12/23 05:46:26;;;;;;;1.4;1;;;;;;;6.77;77.75684;949.7039;;;;
2019/12/23 05:48:51;;;;;;;2.7;0.9;;;;;;;6.72;76.98047;949.8331;;;;
2019/12/23 05:51:16;;;;;;;2.3;0.9;;;;;;;6.74;77.47168;949.8455;;;;
2019/12/23 05:53:41;;;;;;;2.4;0.9;;;;;;;6.76;77.09277;949.8582;;;;
2019/12/23 05:56:06;;;;;;;2.8;0.9;;;;;;;6.75;77.10449;949.8887;;;;
2019/12/23 05:58:31;;;;;;;2.4;0.8;;;;;;;6.78;76.92285;949.8914;;;;
2019/12/23 06:00:56;;;;;;;1.2;0.7;;;;;;;6.75;76.46387;949.9656;;;;
2019/12/23 06:03:22;;;;;;;2.3;0.7;;;;;;;6.78;76.37598;950.0268;;;;
2019/12/23 06:05:47;;;;;;;2.1;0.9;;;;;;;6.76;76.47656;950.0659;;;;
2019/12/23 06:08:12;;;;;;;2.4;1;;;;;;;6.76;75.98926;950.009;;;;
2019/12/23 06:10:37;;;;;;;2.7;0.9;;;;;;;6.65;76.36523;950.0542;;;;
2019/12/23 06:13:02;;;;;;;2.3;0.9;;;;;;;6.71;76.36328;950.0648;;;;
2019/12/23 06:15:27;;;;;;;2.5;0.9;;;;;;;6.75;76.01074;950.0303;;;;
2019/12/23 06:17:53;;;;;;;2.9;0.9;;;;;;;6.72;76.13184;950.125;;;;
2019/12/23 06:20:18;;;;;;;2.5;1;;;;;;;6.69;75.96484;950.0856;;;;
2019/12/23 06:22:43;;;;;;;3.7;1;;;;;;;6.77;75.72363;950.1775;;;;
2019/12/23 06:25:29;;;;;;;1.9;0.8;;;;;;;6.8;75.70605;950.1923;;;;
2019/12/23 06:27:55;;;;;;;3.2;1.1;;;;;;;6.78;75.24902;950.2919;;;;
2019/12/23 06:30:20;;;;;;;4.2;1.1;;;;;;;6.7;75.48047;950.2924;;;;
2019/12/23 06:32:45;;;;;;;3.5;1.1;;;;;;;6.8;75.40234;950.3378;;;;
2019/12/23 06:35:10;;;;;;;4.4;1;;;;;;;6.81;75.13867;950.3575;;;;
2019/12/23 06:37:35;;;;;;;2.9;1;;;;;;;6.92;74.99609;950.4311;;;;
2019/12/23 06:40:00;;;;;;;3.8;1.2;;;;;;;6.89;74.91016;950.4646;;;;
2019/12/23 06:42:25;;;;;;;3.5;1;;;;;;;6.92;74.64746;950.4568;;;;
2019/12/23 06:44:50;;;;;;;3.2;1;;;;;;;6.81;74.68555;950.4917;;;;
2019/12/23 06:47:15;;;;;;;3.9;1.1;;;;;;;6.92;74.5293;950.5461;;;;
2019/12/23 06:49:40;;;;;;;3.4;1.1;;;;;;;6.89;74.38672;950.615;;;;
2019/12/23 06:52:05;;;;;;;3.6;1.2;;;;;;;6.94;74.20898;950.6836;;;;
2019/12/23 06:54:30;;;;;;;4.1;1.1;;;;;;;7.02;73.95508;950.6794;;;;
2019/12/23 06:56:55;;;;;;;5.5;1.3;;;;;;;7.04;73.85156;950.7008;;;;
2019/12/23 06:59:20;;;;;;;3.2;1.1;;;;;;;7;73.71973;950.7017;;;;
2019/12/23 07:01:46;;;;;;;3.6;1.1;;;;;;;7;73.98535;950.7408;;;;
2019/12/23 07:04:11;;;;;;;4.8;1.2;;;;;;;7;73.97559;950.7849;;;;
2019/12/23 07:06:36;;;;;;;2.7;1.1;;;;;;;7.07;73.89258;950.8189;;;;
2019/12/23 07:09:01;;;;;;;3.7;1.3;;;;;;;7.01;74.06836;950.8088;;;;
2019/12/23 07:11:26;;;;;;;4.1;1;;;;;;;7.13;73.60156;950.8416;;;;
2019/12/23 07:13:51;;;;;;;5.5;1.1;;;;;;;7.03;73.875;950.8558;;;;
2019/12/23 07:16:16;;;;;;;3.5;1.1;;;;;;;7.07;74.04395;950.7921;;;;
2019/12/23 07:18:41;;;;;;;2.6;1;;;;;;;7.05;73.73828;950.8049;;;;
2019/12/23 07:21:06;;;;;;;3.7;1.2;;;;;;;7.04;73.85352;950.8833;;;;
2019/12/23 07:23:31;;;;;;;3.5;1.1;;;;;;;7.01;73.8125;950.9308;;;;
2019/12/23 07:25:56;;;;;;;3.8;1.1;;;;;;;7.04;73.80664;950.9716;;;;
2019/12/23 07:28:21;;;;;;;2.8;1;;;;;;;7;73.58984;950.9835;;;;
2019/12/23 07:30:47;;;;;;;2.4;1;;;;;;;6.98;73.67969;951.0179;;;;
2019/12/23 07:33:12;;;;;;;3.7;1.2;;;;;;;7.06;73.6123;951.0051;;;;
2019/12/23 07:35:37;;;;;;;2.9;1.1;;;;;;;7.01;73.77734;951.0433;;;;
2019/12/23 07:38:02;;;;;;;2.7;1;;;;;;;7.01;73.85938;951.1283;;;;
2019/12/23 07:40:27;;;;;;;3.3;1;;;;;;;7;74.17285;951.2062;;;;
2019/12/23 07:42:52;;;;;;;3.5;1;;;;;;;6.99;75.37891;951.1512;;;;
2019/12/23 07:45:17;;;;;;;2.9;1.2;;;;;;;7.06;75.94922;951.2648;;;;
2019/12/23 07:47:42;;;;;;;3.2;1.2;;;;;;;7.01;76.55762;951.313;;;;
2019/12/23 07:50:07;;;;;;;2.3;1.2;;;;;;;6.99;76.9248;951.288;;;;
2019/12/23 07:52:32;;;;;;;2.8;1.1;;;;;;;7;77.74121;951.3631;;;;
2019/12/23 07:54:57;;;;;;;3;1.1;;;;;;;6.95;77.55762;951.4231;;;;
2019/12/23 07:57:22;;;;;;;3.5;1.4;;;;;;;6.89;78.7998;951.4408;;;;
2019/12/23 07:59:47;;;;;;;3.5;1.2;;;;;;;6.79;78.72363;951.4825;;;;
2019/12/23 08:02:13;;;;;;;3.4;1.1;;;;;;;6.81;78.91504;951.5243;;;;
2019/12/23 08:04:38;;;;;;;3.2;1.1;;;;;;;6.84;78.78027;951.5606;;;;
2019/12/23 08:07:03;;;;;;;3.9;1.3;;;;;;;6.9;78.36133;951.5837;;;;
2019/12/23 08:09:28;;;;;;;3.4;1.1;;;;;;;6.91;78.31543;951.653;;;;
2019/12/23 08:11:53;;;;;;;3.6;1.2;;;;;;;6.81;78.16992;951.6355;;;;
2019/12/23 08:14:18;;;;;;;4.7;1.2;;;;;;;6.88;78.55469;951.6855;;;;
2019/12/23 08:16:43;;;;;;;5.9;1.3;;;;;;;6.83;78.77734;951.6934;;;;
2019/12/23 08:19:08;;;;;;;5.5;1.4;;;;;;;6.83;79.44043;951.7471;;;;
2019/12/23 08:21:33;;;;;;;3.8;1.2;;;;;;;6.91;79.6875;951.7897;;;;
2019/12/23 08:23:58;;;;;;;4.7;1.1;;;;;;;6.9;79.76758;951.8708;;;;
2019/12/23 08:26:23;;;;;;;4.1;1.2;;;;;;;6.91;80.08496;951.8761;;;;
2019/12/23 08:28:48;;;;;;;3.7;1.4;;;;;;;6.84;80.11621;951.9509;;;;
2019/12/23 08:31:13;;;;;;;3.6;1.3;;;;;;;6.89;80.16309;951.91;;;;
2019/12/23 08:33:39;;;;;;;3.4;1.2;;;;;;;6.83;80.79883;952.0109;;;;
2019/12/23 08:36:04;;;;;;;4.7;1.2;;;;;;;6.73;80.70117;952.0313;;;;
2019/12/23 08:38:29;;;;;;;1.9;1.2;;;;;;;6.81;81.38965;951.9966;;;;
2019/12/23 08:40:54;;;;;;;4.6;1.3;;;;;;;6.8;80.67871;952.0917;;;;
2019/12/23 08:43:19;;;;;;;2.6;1.3;;;;;;;6.89;80.92676;952.06;;;;
2019/12/23 08:45:44;;;;;;;3.7;1.4;;;;;;;6.87;80.66797;952.0896;;;;
2019/12/23 08:48:09;;;;;;;4.6;1.2;;;;;;;6.85;81.06934;952.1808;;;;
2019/12/23 08:50:34;;;;;;;3.4;1.2;;;;;;;6.84;81;952.215;;;;
2019/12/23 08:52:59;;;;;;;3.6;1.2;;;;;;;6.88;81.67969;952.265;;;;
2019/12/23 08:55:24;;;;;;;3.5;1.3;;;;;;;6.97;81.33789;952.2659;;;;
2019/12/23 08:57:50;;;;;;;3.8;1.2;;;;;;;7.03;80.84961;952.2924;;;;
2019/12/23 09:00:15;;;;;;;2.8;1.3;;;;;;;6.86;80.72363;952.3337;;;;
2019/12/23 09:02:40;;;;;;;2.7;1.1;;;;;;;6.9;81.33691;952.3403;;;;
2019/12/23 09:05:05;;;;;;;2.7;1.2;;;;;;;6.95;81.0332;952.3438;;;;
2019/12/23 09:07:30;;;;;;;2.8;1.3;;;;;;;6.97;81.14063;952.363;;;;
2019/12/23 09:09:55;;;;;;;2.3;1.1;;;;;;;6.95;80.87012;952.4299;;;;
2019/12/23 09:12:20;;;;;;;4.2;1.4;;;;;;;7.04;80.74707;952.4932;;;;
2019/12/23 09:14:45;;;;;;;2.6;1.1;;;;;;;7.17;80.29492;952.4772;;;;
2019/12/23 09:17:10;;;;;;;3.3;1;;;;;;;7.05;80.25879;952.4525;;;;
2019/12/23 09:19:35;;;;;;;3;1.1;;;;;;;7.07;80.85645;952.5432;;;;
2019/12/23 09:22:00;;;;;;;2.7;1.1;;;;;;;7.01;81.28711;952.4711;;;;
2019/12/23 09:26:51;;;;;;;1.7;1.1;;;;;;;7.12;80.56445;952.5542;;;;
2019/12/23 09:29:16;;;;;;;3.8;1.2;;;;;;;7.1;81.11719;952.5461;;;;
2019/12/23 09:31:41;;;;;;;1.6;0.9;;;;;;;7.06;81.31055;952.6133;;;;
2019/12/23 09:34:06;;;;;;;1.5;0.9;;;;;;;7.14;80.56934;952.5417;;;;
2019/12/23 09:36:31;;;;;;;1.2;0.8;;;;;;;7.15;80.5459;952.5867;;;;
2019/12/23 09:38:56;;;;;;;2.2;1;;;;;;;7.29;80.88672;952.7238;;;;
2019/12/23 09:41:21;;;;;;;1.2;0.8;;;;;;;7.28;80.57129;952.4985;;;;
2019/12/23 09:43:46;;;;;;;1.4;0.8;;;;;;;7.22;80.43164;952.5883;;;;
2019/12/23 09:46:11;;;;;;;1.4;0.8;;;;;;;7.36;80.66895;952.6142;;;;
2019/12/23 09:48:36;;;;;;;2;1;;;;;;;7.37;80.35449;952.6019;;;;
2019/12/23 09:51:02;;;;;;;3.1;1;;;;;;;7.28;80.20996;952.6933;;;;
2019/12/23 09:53:27;;;;;;;0.7;0.7;;;;;;;7.25;79.4375;952.6602;;;;
2019/12/23 09:55:52;;;;;;;1.3;0.8;;;;;;;7.29;80.08398;952.7386;;;;
2019/12/23 09:58:17;;;;;;;1.7;0.9;;;;;;;7.34;80.03516;952.7967;;;;
2019/12/23 10:00:42;;;;;;;1.8;1;;;;;;;7.4;79.55859;952.8085;;;;
2019/12/23 10:03:07;;;;;;;2;0.8;;;;;;;7.41;80.03711;952.8542;;;;
2019/12/23 10:05:32;;;;;;;1.2;0.8;;;;;;;7.43;80.19043;952.8748;;;;
2019/12/23 10:07:58;;;;;;;1.2;0.8;;;;;;;7.5;79.83203;952.7903;;;;
2019/12/23 10:10:22;;;;;;;1.3;0.8;;;;;;;7.64;78.79883;952.8178;;;;
2019/12/23 10:12:47;;;;;;;1.7;0.8;;;;;;;7.67;77.52344;952.7864;;;;
2019/12/23 10:15:13;;;;;;;1.1;0.8;;;;;;;8.08;76.75879;952.9138;;;;
2019/12/23 10:17:38;;;;;;;1;0.7;;;;;;;8.12;76.10254;952.9174;;;;
2019/12/23 10:20:03;;;;;;;1.8;0.9;;;;;;;8.01;76.09375;952.8658;;;;
2019/12/23 10:22:28;;;;;;;3.8;1;;;;;;;7.9;75.64258;952.9344;;;;
2019/12/23 10:24:53;;;;;;;1.5;0.8;;;;;;;7.93;76.01172;952.9983;;;;
2019/12/23 10:27:18;;;;;;;2.4;0.9;;;;;;;7.92;75.6709;952.9361;;;;
2019/12/23 10:29:43;;;;;;;1.7;0.8;;;;;;;8.01;76.00098;952.9858;;;;
2019/12/23 10:32:08;;;;;;;2;0.9;;;;;;;8.02;75.28027;952.9268;;;;
2019/12/23 10:34:33;;;;;;;1.7;0.8;;;;;;;7.92;74.57422;952.9111;;;;
2019/12/23 10:36:59;;;;;;;2.9;1;;;;;;;8.04;74.45703;952.9698;;;;
2019/12/23 10:39:24;;;;;;;2;0.9;;;;;;;8.14;73.78516;952.9731;;;;
2019/12/23 10:41:49;;;;;;;3.1;1;;;;;;;8.3;73.46387;952.9673;;;;
2019/12/23 10:44:14;;;;;;;2.4;0.9;;;;;;;8.25;73.55957;953.0256;;;;
2019/12/23 10:46:39;;;;;;;3;1;;;;;;;8.3;73.10254;952.9894;;;;
2019/12/23 10:49:04;;;;;;;2.7;0.9;;;;;;;8.2;73.01465;953.0594;;;;
2019/12/23 10:51:29;;;;;;;2.9;0.9;;;;;;;8.1;73.48926;953.142;;;;
2019/12/23 10:53:55;;;;;;;3.3;1.2;;;;;;;7.94;72.75;953.1755;;;;
2019/12/23 10:56:20;;;;;;;3.4;0.9;;;;;;;7.99;73.57422;953.2349;;;;
2019/12/23 10:58:45;;;;;;;2.8;1;;;;;;;8.07;73.0752;953.1808;;;;
2019/12/23 11:01:10;;;;;;;1.8;0.8;;;;;;;8.2;73.49414;953.2674;;;;
2019/12/23 11:03:35;;;;;;;2.6;1;;;;;;;8.13;73.16699;953.3033;;;;
2019/12/23 11:06:00;;;;;;;2;0.8;;;;;;;8.11;72.97656;953.233;;;;
2019/12/23 11:08:25;;;;;;;2.4;1;;;;;;;8.11;72.37012;953.2395;;;;
2019/12/23 11:10:50;;;;;;;3.7;1.1;;;;;;;8.07;72.71289;953.2855;;;;
2019/12/23 11:13:15;;;;;;;2.4;0.9;;;;;;;8.26;72.22168;953.3038;;;;
2019/12/23 11:15:40;;;;;;;3;1;;;;;;;8.22;71.87695;953.3342;;;;
2019/12/23 11:18:05;;;;;;;2.4;0.9;;;;;;;8.12;71.87207;953.3289;;;;
2019/12/23 11:20:30;;;;;;;2.1;0.9;;;;;;;8.15;72.20313;953.3717;;;;
2019/12/23 11:22:56;;;;;;;6.2;1;;;;;;;8.14;72.375;953.3937;;;;
2019/12/23 11:25:21;;;;;;;2.1;0.9;;;;;;;8.16;71.9248;953.4025;;;;
2019/12/23 11:27:46;;;;;;;1.9;1;;;;;;;8.1;71.62305;953.4533;;;;
2019/12/23 11:30:11;;;;;;;2.7;1;;;;;;;8.15;71.36523;953.4922;;;;
2019/12/23 11:32:36;;;;;;;2.5;0.8;;;;;;;8.08;71.33984;953.5025;;;;
2019/12/23 11:35:01;;;;;;;2.1;0.9;;;;;;;8.22;71.25879;953.4713;;;;
2019/12/23 11:37:26;;;;;;;2.8;0.9;;;;;;;8.26;71.125;953.4984;;;;
2019/12/23 11:39:51;;;;;;;3.5;0.9;;;;;;;8.15;71.0625;953.5003;;;;
2019/12/23 11:42:17;;;;;;;2.1;0.9;;;;;;;8.15;71.22266;953.5033;;;;
2019/12/23 11:44:42;;;;;;;2;1;;;;;;;8.13;70.94141;953.5123;;;;
2019/12/23 11:47:07;;;;;;;2.9;1;;;;;;;8.21;71.25684;953.5156;;;;
2019/12/23 11:49:32;;;;;;;3;1;;;;;;;8.21;70.84961;953.6323;;;;
2019/12/23 11:51:57;;;;;;;3.1;1.1;;;;;;;8.37;71.02539;953.6537;;;;
2019/12/23 11:54:22;;;;;;;4.1;1.1;;;;;;;8.16;71.90137;953.6429;;;;
2019/12/23 11:56:47;;;;;;;3.4;1;;;;;;;8.14;72.66602;953.6277;;;;
2019/12/23 11:59:12;;;;;;;2.7;1.2;;;;;;;8.27;73.7627;953.6566;;;;
2019/12/23 12:01:37;;;;;;;3.5;1.2;;;;;;;8.21;74.06641;953.7062;;;;
2019/12/23 12:04:03;;;;;;;4.1;1.2;;;;;;;8.2;74.92773;953.619;;;;
2019/12/23 12:06:39;;;;;;;4.3;1.1;;;;;;;8.18;75.31934;953.6322;;;;
2019/12/23 12:09:04;;;;;;;4;1.2;;;;;;;8.18;75.34277;953.6523;;;;
2019/12/23 12:11:29;;;;;;;4.5;1.4;;;;;;;8.21;75.13867;953.7263;;;;
2019/12/23 12:13:54;;;;;;;3.6;1.3;;;;;;;8.19;75.78906;953.6883;;;;
2019/12/23 12:16:19;;;;;;;3.5;1.1;;;;;;;8.14;75.70898;953.7294;;;;
2019/12/23 12:18:44;;;;;;;3.1;1.1;;;;;;;8.12;75.12207;953.7647;;;;
2019/12/23 12:21:09;;;;;;;2.4;1;;;;;;;8.2;74.25195;953.7664;;;;
2019/12/23 12:23:34;;;;;;;1.3;1;;;;;;;8.23;74.7002;953.8297;;;;
2019/12/23 12:25:59;;;;;;;2.6;0.9;;;;;;;8.21;74.3584;953.8325;;;;
2019/12/23 12:28:25;;;;;;;2.8;1;;;;;;;8.35;73.96289;953.8855;;;;
2019/12/23 12:30:50;;;;;;;2.5;1;;;;;;;8.31;73.91992;953.9824;;;;
2019/12/23 12:33:15;;;;;;;2.6;0.9;;;;;;;8.28;73.89258;954.0145;;;;
2019/12/23 12:35:40;;;;;;;3;1.4;;;;;;;8.22;74.52246;954.1689;;;;
2019/12/23 12:38:05;;;;;;;2.7;1.2;;;;;;;8.13;74.47266;954.2203;;;;
2019/12/23 12:40:30;;;;;;;1.1;0.8;;;;;;;8.04;73.5;954.2888;;;;
2019/12/23 12:42:55;;;;;;;1;0.7;;;;;;;8;74.46094;954.2258;;;;
2019/12/23 12:45:20;;;;;;;1.6;0.7;;;;;;;8;74.89258;954.2831;;;;
2019/12/23 12:47:45;;;;;;;1.4;0.6;;;;;;;7.99;75.2168;954.3459;;;;
2019/12/23 12:50:11;;;;;;;1.2;0.6;;;;;;;8.04;74.13086;954.2631;;;;
2019/12/23 12:52:36;;;;;;;1.1;0.7;;;;;;;7.86;74.61133;954.247;;;;
2019/12/23 12:55:01;;;;;;;1.1;0.7;;;;;;;7.92;74.70215;954.4435;;;;
2019/12/23 12:57:26;;;;;;;0.7;0.5;;;;;;;8.05;74.69141;954.4261;;;;
2019/12/23 12:59:51;;;;;;;0.7;0.5;;;;;;;8.33;73.62012;954.4757;;;;
2019/12/23 13:02:16;;;;;;;1;0.6;;;;;;;8.29;73.50879;954.4753;;;;
2019/12/23 13:04:41;;;;;;;0.8;0.6;;;;;;;8.39;73.24512;954.5297;;;;
2019/12/23 13:07:06;;;;;;;0.9;0.6;;;;;;;8.36;72.9834;954.5708;;;;
2019/12/23 13:09:31;;;;;;;1;0.7;;;;;;;8.16;72.82227;954.5356;;;;
2019/12/23 13:11:56;;;;;;;1;0.6;;;;;;;8.12;73.24707;954.6395;;;;
2019/12/23 13:14:21;;;;;;;1.8;0.9;;;;;;;8.17;73.10352;954.7845;;;;
2019/12/23 13:16:46;;;;;;;1.4;0.7;;;;;;;8.15;73.26172;954.6989;;;;
2019/12/23 13:19:11;;;;;;;2;0.8;;;;;;;8.32;73.15332;954.724;;;;
2019/12/23 13:21:37;;;;;;;0.8;0.6;;;;;;;8.18;73.47754;954.7112;;;;
2019/12/23 13:24:02;;;;;;;1.1;0.7;;;;;;;8.18;73.62891;954.8205;;;;
2019/12/23 13:26:27;;;;;;;0.9;0.7;;;;;;;7.98;74.375;954.8814;;;;
2019/12/23 13:28:52;;;;;;;3.2;0.9;;;;;;;8.02;74.37109;954.9379;;;;
2019/12/23 13:31:17;;;;;;;1.7;0.8;;;;;;;7.95;74.78027;954.9535;;;;
2019/12/23 13:33:42;;;;;;;1.6;0.9;;;;;;;8.07;74.69531;955.0259;;;;
2019/12/23 13:36:07;;;;;;;1.3;0.9;;;;;;;7.93;74.84473;955.0114;;;;
2019/12/23 13:38:32;;;;;;;1.6;1;;;;;;;7.83;75.14258;955.1764;;;;
2019/12/23 13:40:57;;;;;;;1.8;0.7;;;;;;;7.9;74.74707;955.1447;;;;
2019/12/23 13:43:22;;;;;;;2;0.9;;;;;;;7.98;74.52637;955.2426;;;;
2019/12/23 13:45:47;;;;;;;2.2;1.1;;;;;;;7.93;74.75391;955.2559;;;;
2019/12/23 13:48:13;;;;;;;1.4;0.9;;;;;;;7.93;75.05469;955.359;;;;
2019/12/23 13:50:38;;;;;;;1.2;0.9;;;;;;;8.04;75.23633;955.3789;;;;
2019/12/23 13:53:03;;;;;;;1.8;0.9;;;;;;;7.9;75.79395;955.5435;;;;
2019/12/23 13:55:28;;;;;;;2.7;1.1;;;;;;;7.77;76.14551;955.5709;;;;
2019/12/23 13:57:53;;;;;;;2.7;1.1;;;;;;;7.78;76.28613;955.4709;;;;
2019/12/23 14:00:18;;;;;;;2;1;;;;;;;7.72;76.68262;955.5136;;;;
2019/12/23 14:02:43;;;;;;;1.7;1;;;;;;;7.82;76.64355;955.5349;;;;
2019/12/23 14:05:08;;;;;;;1.8;1.1;;;;;;;7.81;76.94336;955.4911;;;;
2019/12/23 14:07:33;;;;;;;2.4;1.2;;;;;;;7.81;76.66406;955.5385;;;;
2019/12/23 14:09:58;;;;;;;2.5;1.1;;;;;;;7.93;76.37305;955.5783;;;;
2019/12/23 14:12:23;;;;;;;2;1.3;;;;;;;7.99;75.70605;955.5698;;;;
2019/12/23 14:14:48;;;;;;;1.8;0.9;;;;;;;7.96;75.62012;955.6072;;;;
2019/12/23 14:17:13;;;;;;;1.9;1.1;;;;;;;8.09;75.6416;955.6351;;;;
2019/12/23 14:19:39;;;;;;;3.2;1.1;;;;;;;7.98;75.63477;955.6365;;;;
2019/12/23 14:22:04;;;;;;;1.5;1;;;;;;;8.04;75.27246;955.654;;;;
2019/12/23 14:24:29;;;;;;;2;1.1;;;;;;;8.13;74.75195;955.6459;;;;
2019/12/23 14:26:54;;;;;;;3.2;1.2;;;;;;;8.08;74.8125;955.6965;;;;
2019/12/23 14:29:19;;;;;;;1.9;0.9;;;;;;;8.06;74.62305;955.8225;;;;
2019/12/23 14:31:44;;;;;;;1.9;1;;;;;;;8.07;74.64844;955.8958;;;;
2019/12/23 14:34:09;;;;;;;1.4;1;;;;;;;8.11;74.72461;955.8017;;;;